Nearby METAR Reports

 

KISM - Kissimmee/Orland, Florida, USA
Distance from station: NW 19mi, 31km
Updated: 08/17/2018 3:56pm
Clear
Clear
 Wind from S
Wind: S 7 mph , 11 km/h
Temperature: 93°F , 34°C
Heat Index: 100°F , 38°C
Dew Point: 72°F , 22°C
Humidity: 49%
Barometer: 30.15 inHg , 1021 hPa
Clouds: Clear
Visibility: 10 miles , 16 km
2018/08/17 19:56 KISM 171956Z 19006KT 10SM CLR 34/22 A3015 RMK AO2 SLP210 T03390222
KMCO - Orlando, Florida, USA
Distance from station: NNW 23mi, 37km
Updated: 08/17/2018 3:53pm
Mostly cloudy
Mostly cloudy
 Wind from ESE
Wind: ESE 10 mph , 17 km/h
Temperature: 90°F , 32°C
Heat Index: 99°F , 37°C
Dew Point: 73°F , 23°C
Humidity: 59%
Barometer: 30.14 inHg , 1020.7 hPa
Clouds: Mostly cloudy
Visibility: 10 miles , 16 km
Cloud details: Partly cloudy 5000 ft
Mostly cloudy 25000 ft
2018/08/17 19:53 KMCO 171953Z 11009KT 10SM SCT050CB BKN250 32/23 A3014 RMK AO2 SLP206 CB OHD N S MOV W T03170228
 
KORL - Orlando, Florida, USA
Distance from station: NNW 32mi, 51km
Updated: 08/17/2018 4:10pm
Light rain, Overcast
Light rain, Overcast
 Wind from WNW
Wind: WNW 9 mph , 15 km/h
Temperature: 88°F , 31°C
Heat Index: 96°F , 36°C
Dew Point: 73°F , 23°C
Humidity: 62%
Barometer: 30.14 inHg , 1020.7 hPa
Summary: Light rain
Clouds: Overcast
Visibility: 3 miles , 5 km
Cloud details: Mostly cloudy 5000 ft
Mostly cloudy 6000 ft
Overcast 8000 ft
2018/08/17 20:10 KORL 172010Z 29008KT 3SM R07/5000VP6000FT -RA BKN050 BKN060 OVC080 31/23 A3014 RMK AO2 P0013 T03060233
KMLB - Melbourne, Florida, USA
Distance from station: E 32mi, 52km
Updated: 08/17/2018 3:53pm
Clear
Clear
 Wind from ESE
Wind: ESE 15 mph , 24 km/h
Temperature: 90°F , 32°C
Heat Index: 99°F , 37°C
Dew Point: 73°F , 23°C
Humidity: 59%
Barometer: 30.16 inHg , 1021.3 hPa
Clouds: Clear
Visibility: 10 miles , 16 km
2018/08/17 19:53 KMLB 171953Z 12013KT 10SM CLR 32/23 A3016 RMK AO2 SLP211 T03220233
 
KGIF - Winter Haven, Florida, USA
Distance from station: W 35mi, 56km
Updated: 08/17/2018 3:53pm
Few Clouds
Few Clouds
 Wind from E
Wind: E 7 mph , 11 km/h
Temperature: 91°F , 33°C
Heat Index: 94°F , 34°C
Dew Point: 66°F , 19°C
Humidity: 44%
Barometer: 30.16 inHg , 1021.3 hPa
Clouds: Few Clouds
Visibility: 10 miles , 16 km
Cloud details: Few Clouds 6000 ft
2018/08/17 19:53 KGIF 171953Z AUTO 10006KT 10SM FEW060 33/19 A3016 RMK AO2 SLP208 T03330194
KTIX - Titusville, Florida, USA
Distance from station: NE 35mi, 57km
Updated: 08/17/2018 3:53pm
Few Clouds
Few Clouds
 Wind from ESE
Wind: ESE 12 mph , 19 km/h
Temperature: 91°F , 33°C
Heat Index: 98°F , 37°C
Dew Point: 72°F , 22°C
Humidity: 52%
Barometer: 30.17 inHg , 1021.7 hPa
Clouds: Few Clouds
Visibility: 7 miles , 11 km
Cloud details: Few Clouds 3500 ft
2018/08/17 19:53 KTIX 171953Z 12010KT 7SM FEW035 33/22 A3017
 
KCOF - Patrick Afb/Coco, Florida, USA
Distance from station: ENE 36mi, 58km
Updated: 08/17/2018 3:56pm
Clear
Clear
 Wind from SE
Wind: SE 12 mph , 19 km/h
Temperature: 88°F , 31°C
Heat Index: 100°F , 38°C
Dew Point: 77°F , 25°C
Humidity: 70%
Barometer: 30.16 inHg , 1021.3 hPa
Clouds: Clear
Visibility: 10 miles , 16 km
2018/08/17 19:56 KCOF 171956Z AUTO 13010KT 10SM CLR 31/25 A3016 RMK AO2 SLP217 T03100253 $
KBOW - Bartow Municipal, Florida, USA
Distance from station: WSW 38mi, 61km
Updated: 08/17/2018 3:50pm
Partly cloudy
Partly cloudy
 Wind from E
Wind: E 7 mph , 11 km/h
Temperature: 93°F , 34°C
Heat Index: 97°F , 36°C
Dew Point: 68°F , 20°C
Humidity: 44%
Barometer: 30.15 inHg , 1021 hPa
Clouds: Partly cloudy
Visibility: 10 miles , 16 km
Cloud details: Partly cloudy 6000 ft
2018/08/17 19:50 KBOW 171950Z 10006KT 10SM SCT060 34/20 A3015
 
KXMR - Cape Canaveral, Florida, USA
Distance from station: NE 44mi, 72km
Updated: 08/17/2018 3:56pm
Clear
Clear
 Wind from SE
Wind: SE 10 mph , 17 km/h
Temperature: 90°F , 32°C
Heat Index: 99°F , 37°C
Dew Point: 73°F , 23°C
Humidity: 59%
Barometer: 30.15 inHg , 1021 hPa
Clouds: Clear
Visibility: 10 miles , 16 km
2018/08/17 19:56 KXMR 171956Z AUTO 14009KT 10SM CLR 32/23 A3015 RMK AO2 SLP213 T03170229 $
KTTS - Nasa Shuttle Fcl, Florida, USA
Distance from station: NE 45mi, 72km
Updated: 08/17/2018 3:56pm
Clear
Clear
 Wind from ESE
Wind: ESE 8 mph , 13 km/h
Temperature: 90°F , 32°C
Heat Index: 99°F , 37°C
Dew Point: 73°F , 23°C
Humidity: 59%
Barometer: 30.16 inHg , 1021.3 hPa
Clouds: Clear
Visibility: 10 miles , 16 km
2018/08/17 19:56 KTTS 171956Z AUTO 12007KT 10SM CLR 32/23 A3016 RMK AO2 SLP217 T03200227 $
 
KSFB - Sanford/Orlando, Florida, USA
Distance from station: N 45mi, 73km
Updated: 08/17/2018 3:53pm
Clear
Clear
 Wind from ESE
Wind: ESE 12 mph , 19 km/h
Temperature: 91°F , 33°C
Heat Index: 102°F , 39°C
Dew Point: 75°F , 24°C
Humidity: 59%
Barometer: 30.14 inHg , 1020.7 hPa
Clouds: Clear
Visibility: 10 miles , 16 km
2018/08/17 19:53 KSFB 171953Z 11010KT 10SM CLR 33/24 A3014 RMK AO2 SLP206 T03330239
KLAL - Lakeland Regiona, Florida, USA
Distance from station: WSW 52mi, 84km
Updated: 08/17/2018 3:50pm
Partly cloudy
Partly cloudy
 Wind from SE
Wind: SE 5 mph , 7 km/h
Temperature: 90°F , 32°C
Heat Index: 96°F , 36°C
Dew Point: 70°F , 21°C
Humidity: 52%
Barometer: 30.15 inHg , 1021 hPa
Clouds: Partly cloudy
Visibility: 10 miles , 16 km
Cloud details: Partly cloudy 5000 ft
2018/08/17 19:50 KLAL 171950Z 13004KT 10SM SCT050 32/21 A3015
 
KVRB - Vero Beach, Florida, USA
Distance from station: SE 57mi, 91km
Updated: 08/17/2018 3:53pm
Few Clouds
Few Clouds
 Wind from E
Wind: E 10 mph , 17 km/h
Temperature: 90°F , 32°C
Heat Index: 101°F , 38°C
Dew Point: 75°F , 24°C
Humidity: 63%
Barometer: 30.16 inHg , 1021.3 hPa
Clouds: Few Clouds
Visibility: 10 miles , 16 km
Cloud details: Few Clouds 2600 ft
2018/08/17 19:53 KVRB 171953Z 09009KT 10SM FEW026 32/24 A3016 RMK AO2 SLP212 T03170239
KZPH - Zephyrhills, Florida, USA
Distance from station: W 60mi, 96km
Updated: 08/17/2018 4:35pm
Clear
Clear
 Wind from ESE
Wind: ESE 7 mph , 11 km/h
Temperature: 95°F , 35°C
Heat Index: 101°F , 38°C
Dew Point: 70°F , 21°C
Humidity: 44%
Barometer: 30.13 inHg , 1020.3 hPa
Clouds: Clear
Visibility: 10 miles , 16 km
2018/08/17 20:35 KZPH 172035Z AUTO 12006KT 10SM CLR 35/21 A3013 RMK AO2 T03470211
 
KPCM - Plant City Muni, Florida, USA
Distance from station: W 61mi, 98km
Updated: 08/17/2018 4:35pm
Clear
Clear
 Wind from SSE
Wind: SSE 5 mph , 7 km/h
Temperature: 95°F , 35°C
Heat Index: 101°F , 38°C
Dew Point: 70°F , 21°C
Humidity: 44%
Barometer: 30.15 inHg , 1021 hPa
Clouds: Clear
Visibility: 10 miles , 16 km
2018/08/17 20:35 KPCM 172035Z AUTO 15004KT 10SM CLR 35/21 A3015 RMK AO2
KLEE - Leesburg, Florida, USA
Distance from station: NW 62mi, 100km
Updated: 08/17/2018 3:53pm
Partly cloudy
Partly cloudy
 Wind from SSE
Wind: SSE 7 mph , 11 km/h
Temperature: 91°F , 33°C
Heat Index: 98°F , 37°C
Dew Point: 72°F , 22°C
Humidity: 52%
Barometer: 30.14 inHg , 1020.7 hPa
Clouds: Partly cloudy
Visibility: 10 miles , 16 km
Cloud details: Partly cloudy 3500 ft
2018/08/17 19:53 KLEE 171953Z AUTO 15006KT 10SM SCT035 33/22 A3014 RMK AO2 SLP206 T03330217
 
KOBE - Okeechobee Cty, Florida, USA
Distance from station: SSE 62mi, 100km
Updated: 08/17/2018 4:35pm
Partly cloudy
Partly cloudy
 Wind from ESE
Wind: ESE 8 mph , 13 km/h
Temperature: 90°F , 32°C
Heat Index: 96°F , 36°C
Dew Point: 70°F , 21°C
Humidity: 52%
Barometer: 30.13 inHg , 1020.3 hPa
Clouds: Partly cloudy
Visibility: 10 miles , 16 km
Cloud details: Partly cloudy 5500 ft
2018/08/17 20:35 KOBE 172035Z AUTO 12007KT 10SM SCT055 32/21 A3013 RMK AO2
KFPR - Fort Pierce, Florida, USA
Distance from station: SE 65mi, 104km
Updated: 08/17/2018 3:53pm
Few Clouds
Few Clouds
 Wind from E
Wind: E 13 mph , 20 km/h
Temperature: 88°F , 31°C
Heat Index: 98°F , 37°C
Dew Point: 75°F , 24°C
Humidity: 66%
Barometer: 30.16 inHg , 1021.3 hPa
Clouds: Few Clouds
Visibility: 10 miles , 16 km
Cloud details: Few Clouds 3100 ft
2018/08/17 19:53 KFPR 171953Z 10011KT 10SM FEW031 31/24 A3016 RMK AO2 SLP211 T03110239
 
KDED - Deland, Florida, USA
Distance from station: N 66mi, 106km
Updated: 08/17/2018 4:35pm
Clear
Clear
 Wind from SE
Wind: SE 10 mph , 17 km/h
Temperature: 91°F , 33°C
Heat Index: 100°F , 38°C
Dew Point: 73°F , 23°C
Humidity: 56%
Barometer: 30.12 inHg , 1020 hPa
Clouds: Clear
Visibility: 10 miles , 16 km
2018/08/17 20:35 KDED 172035Z AUTO 13009KT 10SM CLR 33/23 A3012 RMK AO2 LTG DSNT N AND NW
KEVB - New Smyrna Beach, Florida, USA
Distance from station: NNE 66mi, 106km
Updated: 08/17/2018 3:47pm
Partly cloudy
Partly cloudy
 Wind from ESE
Wind: ESE 14 mph , 22 km/h
Temperature: 90°F , 32°C
Heat Index: 101°F , 38°C
Dew Point: 75°F , 24°C
Humidity: 63%
Barometer: 30.17 inHg , 1021.7 hPa
Clouds: Partly cloudy
Visibility: 10 miles , 16 km
Cloud details: Partly cloudy 3000 ft
2018/08/17 19:47 KEVB 171947Z 12012KT 10SM SCT030 32/24 A3017